sensor_id;sensor_type;location;lat;lon;timestamp;temperature;humidity
15749;DHT22;7976;52.526;13.326;2023-07-31T00:01:47;16.10;99.90
15749;DHT22;7976;52.526;13.326;2023-07-31T00:04:15;16.10;99.90
15749;DHT22;7976;52.526;13.326;2023-07-31T00:06:42;16.10;99.90
15749;DHT22;7976;52.526;13.326;2023-07-31T00:09:09;16.10;99.90
15749;DHT22;7976;52.526;13.326;2023-07-31T00:11:36;16.10;99.90
15749;DHT22;7976;52.526;13.326;2023-07-31T00:14:03;16.10;99.90
15749;DHT22;7976;52.526;13.326;2023-07-31T00:16:30;16.10;99.90
15749;DHT22;7976;52.526;13.326;2023-07-31T00:18:56;16.10;99.90
15749;DHT22;7976;52.526;13.326;2023-07-31T00:21:25;16.20;99.90
15749;DHT22;7976;52.526;13.326;2023-07-31T00:23:51;16.20;99.90
15749;DHT22;7976;52.526;13.326;2023-07-31T00:26:18;16.20;99.90
15749;DHT22;7976;52.526;13.326;2023-07-31T00:28:45;16.20;99.90
15749;DHT22;7976;52.526;13.326;2023-07-31T00:31:13;16.20;99.90
15749;DHT22;7976;52.526;13.326;2023-07-31T00:33:40;16.30;99.90
15749;DHT22;7976;52.526;13.326;2023-07-31T00:36:07;16.30;99.90
15749;DHT22;7976;52.526;13.326;2023-07-31T00:38:35;16.30;99.90
15749;DHT22;7976;52.526;13.326;2023-07-31T00:41:02;16.30;99.90
15749;DHT22;7976;52.526;13.326;2023-07-31T00:43:30;16.30;99.90
15749;DHT22;7976;52.526;13.326;2023-07-31T00:45:57;16.30;99.90
15749;DHT22;7976;52.526;13.326;2023-07-31T00:48:25;16.30;99.90
15749;DHT22;7976;52.526;13.326;2023-07-31T00:50:52;16.30;99.90
15749;DHT22;7976;52.526;13.326;2023-07-31T00:53:21;16.30;99.90
15749;DHT22;7976;52.526;13.326;2023-07-31T00:55:51;16.40;99.90
15749;DHT22;7976;52.526;13.326;2023-07-31T00:58:19;16.40;99.90
15749;DHT22;7976;52.526;13.326;2023-07-31T01:00:46;16.40;99.90
15749;DHT22;7976;52.526;13.326;2023-07-31T01:03:12;16.50;99.90
15749;DHT22;7976;52.526;13.326;2023-07-31T01:05:43;16.50;99.90
15749;DHT22;7976;52.526;13.326;2023-07-31T01:08:26;16.50;99.90
15749;DHT22;7976;52.526;13.326;2023-07-31T01:11:04;16.50;99.90
15749;DHT22;7976;52.526;13.326;2023-07-31T01:13:38;16.60;99.90
15749;DHT22;7976;52.526;13.326;2023-07-31T01:16:05;16.60;99.90
15749;DHT22;7976;52.526;13.326;2023-07-31T01:18:32;16.60;99.90
15749;DHT22;7976;52.526;13.326;2023-07-31T01:21:06;16.60;99.90
15749;DHT22;7976;52.526;13.326;2023-07-31T01:24:15;16.60;99.90
15749;DHT22;7976;52.526;13.326;2023-07-31T01:26:55;16.60;99.90
15749;DHT22;7976;52.526;13.326;2023-07-31T01:29:32;16.60;99.90
15749;DHT22;7976;52.526;13.326;2023-07-31T01:32:06;16.60;99.90
15749;DHT22;7976;52.526;13.326;2023-07-31T01:34:37;16.60;99.90
15749;DHT22;7976;52.526;13.326;2023-07-31T01:37:04;16.60;99.90
15749;DHT22;7976;52.526;13.326;2023-07-31T01:39:31;16.60;99.90
15749;DHT22;7976;52.526;13.326;2023-07-31T01:41:59;16.60;99.90
15749;DHT22;7976;52.526;13.326;2023-07-31T01:44:27;16.60;99.90
15749;DHT22;7976;52.526;13.326;2023-07-31T01:46:54;16.60;99.90
15749;DHT22;7976;52.526;13.326;2023-07-31T01:49:21;16.50;99.90
15749;DHT22;7976;52.526;13.326;2023-07-31T01:51:48;16.60;99.90
15749;DHT22;7976;52.526;13.326;2023-07-31T01:54:14;16.60;99.90
15749;DHT22;7976;52.526;13.326;2023-07-31T01:56:41;16.60;99.90
15749;DHT22;7976;52.526;13.326;2023-07-31T01:59:09;16.60;99.90
15749;DHT22;7976;52.526;13.326;2023-07-31T02:01:36;16.60;99.90
15749;DHT22;7976;52.526;13.326;2023-07-31T02:04:03;16.60;99.90
15749;DHT22;7976;52.526;13.326;2023-07-31T02:06:30;16.60;99.90
15749;DHT22;7976;52.526;13.326;2023-07-31T02:08:57;16.60;99.90
15749;DHT22;7976;52.526;13.326;2023-07-31T02:11:24;16.60;99.90
15749;DHT22;7976;52.526;13.326;2023-07-31T02:13:51;16.60;99.90
15749;DHT22;7976;52.526;13.326;2023-07-31T02:16:19;16.60;99.90
15749;DHT22;7976;52.526;13.326;2023-07-31T02:18:45;16.70;99.90
15749;DHT22;7976;52.526;13.326;2023-07-31T02:21:12;16.70;99.90
15749;DHT22;7976;52.526;13.326;2023-07-31T02:23:38;16.70;99.90
15749;DHT22;7976;52.526;13.326;2023-07-31T02:26:05;16.70;99.90
15749;DHT22;7976;52.526;13.326;2023-07-31T02:28:32;16.70;99.90
15749;DHT22;7976;52.526;13.326;2023-07-31T02:30:59;16.70;99.90
15749;DHT22;7976;52.526;13.326;2023-07-31T02:33:27;16.70;99.90
15749;DHT22;7976;52.526;13.326;2023-07-31T02:35:56;16.70;99.90
15749;DHT22;7976;52.526;13.326;2023-07-31T02:38:22;16.70;99.90
15749;DHT22;7976;52.526;13.326;2023-07-31T02:40:49;16.70;99.90
15749;DHT22;7976;52.526;13.326;2023-07-31T02:43:16;16.70;99.90
15749;DHT22;7976;52.526;13.326;2023-07-31T02:45:43;16.70;99.90
15749;DHT22;7976;52.526;13.326;2023-07-31T02:48:10;16.70;99.90
15749;DHT22;7976;52.526;13.326;2023-07-31T02:50:38;16.70;99.90
15749;DHT22;7976;52.526;13.326;2023-07-31T02:53:05;16.70;99.90
15749;DHT22;7976;52.526;13.326;2023-07-31T02:55:32;16.70;99.90
15749;DHT22;7976;52.526;13.326;2023-07-31T02:57:59;16.70;99.90
15749;DHT22;7976;52.526;13.326;2023-07-31T03:00:26;16.70;99.90
15749;DHT22;7976;52.526;13.326;2023-07-31T03:02:52;16.70;99.90
15749;DHT22;7976;52.526;13.326;2023-07-31T03:05:19;16.70;99.90
15749;DHT22;7976;52.526;13.326;2023-07-31T03:07:48;16.70;99.90
15749;DHT22;7976;52.526;13.326;2023-07-31T03:10:15;16.70;99.90
15749;DHT22;7976;52.526;13.326;2023-07-31T03:12:41;16.70;99.90
15749;DHT22;7976;52.526;13.326;2023-07-31T03:15:09;16.70;99.90
15749;DHT22;7976;52.526;13.326;2023-07-31T03:17:36;16.70;99.90
15749;DHT22;7976;52.526;13.326;2023-07-31T03:20:04;16.70;99.90
15749;DHT22;7976;52.526;13.326;2023-07-31T03:22:31;16.70;99.90
15749;DHT22;7976;52.526;13.326;2023-07-31T03:24:59;16.70;99.90
15749;DHT22;7976;52.526;13.326;2023-07-31T03:27:26;16.70;99.90
15749;DHT22;7976;52.526;13.326;2023-07-31T03:29:53;16.80;99.90
15749;DHT22;7976;52.526;13.326;2023-07-31T03:32:20;16.80;99.90
15749;DHT22;7976;52.526;13.326;2023-07-31T03:34:47;16.70;99.90
15749;DHT22;7976;52.526;13.326;2023-07-31T03:37:15;16.80;99.90
15749;DHT22;7976;52.526;13.326;2023-07-31T03:39:42;16.80;99.90
15749;DHT22;7976;52.526;13.326;2023-07-31T03:42:10;16.80;99.90
15749;DHT22;7976;52.526;13.326;2023-07-31T03:44:37;16.80;99.90
15749;DHT22;7976;52.526;13.326;2023-07-31T03:47:04;16.80;99.90
15749;DHT22;7976;52.526;13.326;2023-07-31T03:49:31;16.70;99.90
15749;DHT22;7976;52.526;13.326;2023-07-31T03:51:58;16.70;99.90
15749;DHT22;7976;52.526;13.326;2023-07-31T03:54:25;16.70;99.90
15749;DHT22;7976;52.526;13.326;2023-07-31T03:56:52;16.70;99.90
15749;DHT22;7976;52.526;13.326;2023-07-31T03:59:20;16.60;99.90
15749;DHT22;7976;52.526;13.326;2023-07-31T04:01:47;16.60;99.90
15749;DHT22;7976;52.526;13.326;2023-07-31T04:04:13;16.60;99.90
15749;DHT22;7976;52.526;13.326;2023-07-31T04:06:40;16.60;99.90
15749;DHT22;7976;52.526;13.326;2023-07-31T04:09:07;16.60;99.90
15749;DHT22;7976;52.526;13.326;2023-07-31T04:11:34;16.60;99.90
15749;DHT22;7976;52.526;13.326;2023-07-31T04:14:01;16.60;99.90
15749;DHT22;7976;52.526;13.326;2023-07-31T04:16:29;16.60;99.90
15749;DHT22;7976;52.526;13.326;2023-07-31T04:18:56;16.70;99.90
15749;DHT22;7976;52.526;13.326;2023-07-31T04:21:23;16.60;99.90
15749;DHT22;7976;52.526;13.326;2023-07-31T04:23:50;16.70;99.90
15749;DHT22;7976;52.526;13.326;2023-07-31T04:26:17;16.70;99.90
15749;DHT22;7976;52.526;13.326;2023-07-31T04:28:43;16.70;99.90
15749;DHT22;7976;52.526;13.326;2023-07-31T04:31:10;16.70;99.90
15749;DHT22;7976;52.526;13.326;2023-07-31T04:33:38;16.70;99.90
15749;DHT22;7976;52.526;13.326;2023-07-31T04:36:05;16.70;99.90
15749;DHT22;7976;52.526;13.326;2023-07-31T04:38:32;16.70;99.90
15749;DHT22;7976;52.526;13.326;2023-07-31T04:40:59;16.70;99.90
15749;DHT22;7976;52.526;13.326;2023-07-31T04:43:25;16.70;99.90
15749;DHT22;7976;52.526;13.326;2023-07-31T04:45:52;16.70;99.90
15749;DHT22;7976;52.526;13.326;2023-07-31T04:48:19;16.70;99.90
15749;DHT22;7976;52.526;13.326;2023-07-31T04:50:47;16.70;99.90
15749;DHT22;7976;52.526;13.326;2023-07-31T04:53:14;16.60;99.90
15749;DHT22;7976;52.526;13.326;2023-07-31T04:55:41;16.60;99.90
15749;DHT22;7976;52.526;13.326;2023-07-31T04:58:08;16.60;99.90
15749;DHT22;7976;52.526;13.326;2023-07-31T05:00:35;16.60;99.90
15749;DHT22;7976;52.526;13.326;2023-07-31T05:03:02;16.60;99.90
15749;DHT22;7976;52.526;13.326;2023-07-31T05:05:29;16.60;99.90
15749;DHT22;7976;52.526;13.326;2023-07-31T05:07:57;16.60;99.90
15749;DHT22;7976;52.526;13.326;2023-07-31T05:10:24;16.60;99.90
15749;DHT22;7976;52.526;13.326;2023-07-31T05:12:51;16.70;99.90
15749;DHT22;7976;52.526;13.326;2023-07-31T05:15:18;16.70;99.90
15749;DHT22;7976;52.526;13.326;2023-07-31T05:17:44;16.80;99.90
15749;DHT22;7976;52.526;13.326;2023-07-31T05:20:12;16.80;99.90
15749;DHT22;7976;52.526;13.326;2023-07-31T05:22:40;16.90;99.90
15749;DHT22;7976;52.526;13.326;2023-07-31T05:25:08;16.80;99.90
15749;DHT22;7976;52.526;13.326;2023-07-31T05:27:35;16.90;99.90
15749;DHT22;7976;52.526;13.326;2023-07-31T05:30:02;16.90;99.90
15749;DHT22;7976;52.526;13.326;2023-07-31T05:32:30;16.90;99.90
15749;DHT22;7976;52.526;13.326;2023-07-31T05:34:57;16.90;99.90
15749;DHT22;7976;52.526;13.326;2023-07-31T05:37:24;17.00;99.90
15749;DHT22;7976;52.526;13.326;2023-07-31T05:39:51;17.00;99.90
15749;DHT22;7976;52.526;13.326;2023-07-31T05:42:19;17.00;99.90
15749;DHT22;7976;52.526;13.326;2023-07-31T05:44:45;17.00;99.90
15749;DHT22;7976;52.526;13.326;2023-07-31T05:47:12;17.00;99.90
15749;DHT22;7976;52.526;13.326;2023-07-31T05:49:39;17.00;99.90
15749;DHT22;7976;52.526;13.326;2023-07-31T05:52:06;17.00;99.90
15749;DHT22;7976;52.526;13.326;2023-07-31T05:54:33;17.00;99.90
15749;DHT22;7976;52.526;13.326;2023-07-31T05:57:00;17.00;99.90
15749;DHT22;7976;52.526;13.326;2023-07-31T05:59:28;17.00;99.90
15749;DHT22;7976;52.526;13.326;2023-07-31T06:01:58;17.00;99.90
15749;DHT22;7976;52.526;13.326;2023-07-31T06:04:25;17.00;99.90
15749;DHT22;7976;52.526;13.326;2023-07-31T06:06:52;17.00;99.90
15749;DHT22;7976;52.526;13.326;2023-07-31T06:09:19;17.00;99.90
15749;DHT22;7976;52.526;13.326;2023-07-31T06:11:46;17.00;99.90
15749;DHT22;7976;52.526;13.326;2023-07-31T06:14:13;17.00;99.90
15749;DHT22;7976;52.526;13.326;2023-07-31T06:16:41;17.00;99.90
15749;DHT22;7976;52.526;13.326;2023-07-31T06:19:09;17.00;99.90
15749;DHT22;7976;52.526;13.326;2023-07-31T06:21:36;17.00;99.90
15749;DHT22;7976;52.526;13.326;2023-07-31T06:24:04;17.00;99.90
15749;DHT22;7976;52.526;13.326;2023-07-31T06:26:31;17.00;99.90
15749;DHT22;7976;52.526;13.326;2023-07-31T06:28:58;17.00;99.90
15749;DHT22;7976;52.526;13.326;2023-07-31T06:31:25;17.00;99.90
15749;DHT22;7976;52.526;13.326;2023-07-31T06:33:54;17.00;99.90
15749;DHT22;7976;52.526;13.326;2023-07-31T06:38:55;17.10;99.90
15749;DHT22;7976;52.526;13.326;2023-07-31T06:41:21;17.10;99.90
15749;DHT22;7976;52.526;13.326;2023-07-31T06:43:48;17.20;99.90
15749;DHT22;7976;52.526;13.326;2023-07-31T06:46:15;17.30;99.90
15749;DHT22;7976;52.526;13.326;2023-07-31T06:48:42;17.40;99.90
15749;DHT22;7976;52.526;13.326;2023-07-31T06:51:10;17.40;99.90
15749;DHT22;7976;52.526;13.326;2023-07-31T06:53:37;17.40;99.90
15749;DHT22;7976;52.526;13.326;2023-07-31T06:56:04;17.40;99.90
15749;DHT22;7976;52.526;13.326;2023-07-31T06:58:31;17.40;99.90
15749;DHT22;7976;52.526;13.326;2023-07-31T07:00:58;17.50;99.90
15749;DHT22;7976;52.526;13.326;2023-07-31T07:03:24;17.60;99.90
15749;DHT22;7976;52.526;13.326;2023-07-31T07:05:51;17.60;99.90
15749;DHT22;7976;52.526;13.326;2023-07-31T07:08:19;17.60;99.90
15749;DHT22;7976;52.526;13.326;2023-07-31T07:10:46;17.60;99.90
15749;DHT22;7976;52.526;13.326;2023-07-31T07:13:13;17.60;99.90
15749;DHT22;7976;52.526;13.326;2023-07-31T07:15:40;17.50;99.90
15749;DHT22;7976;52.526;13.326;2023-07-31T07:18:07;17.40;99.90
15749;DHT22;7976;52.526;13.326;2023-07-31T07:20:36;17.50;99.90
15749;DHT22;7976;52.526;13.326;2023-07-31T07:23:02;17.50;99.90
15749;DHT22;7976;52.526;13.326;2023-07-31T07:25:30;17.60;99.90
15749;DHT22;7976;52.526;13.326;2023-07-31T07:27:57;17.60;99.90
15749;DHT22;7976;52.526;13.326;2023-07-31T07:30:24;17.50;99.90
15749;DHT22;7976;52.526;13.326;2023-07-31T07:32:51;17.50;99.90
15749;DHT22;7976;52.526;13.326;2023-07-31T07:35:18;17.50;99.90
15749;DHT22;7976;52.526;13.326;2023-07-31T07:37:45;17.50;99.90
15749;DHT22;7976;52.526;13.326;2023-07-31T07:40:14;17.50;99.90
15749;DHT22;7976;52.526;13.326;2023-07-31T07:42:43;17.50;99.90
15749;DHT22;7976;52.526;13.326;2023-07-31T07:48:58;17.50;99.90
15749;DHT22;7976;52.526;13.326;2023-07-31T07:51:25;17.60;99.90
15749;DHT22;7976;52.526;13.326;2023-07-31T07:53:52;17.60;99.90
15749;DHT22;7976;52.526;13.326;2023-07-31T07:56:18;17.60;99.90
15749;DHT22;7976;52.526;13.326;2023-07-31T07:58:49;17.50;99.90
15749;DHT22;7976;52.526;13.326;2023-07-31T08:01:16;17.40;99.90
15749;DHT22;7976;52.526;13.326;2023-07-31T08:04:10;17.30;99.90
15749;DHT22;7976;52.526;13.326;2023-07-31T08:06:37;17.30;99.90
15749;DHT22;7976;52.526;13.326;2023-07-31T08:09:04;17.30;99.90
15749;DHT22;7976;52.526;13.326;2023-07-31T08:11:31;17.30;99.90
15749;DHT22;7976;52.526;13.326;2023-07-31T08:14:00;17.30;99.90
15749;DHT22;7976;52.526;13.326;2023-07-31T08:16:27;17.20;99.90
15749;DHT22;7976;52.526;13.326;2023-07-31T08:18:53;17.20;99.90
15749;DHT22;7976;52.526;13.326;2023-07-31T08:21:21;17.20;99.90
15749;DHT22;7976;52.526;13.326;2023-07-31T08:23:48;17.30;99.90
15749;DHT22;7976;52.526;13.326;2023-07-31T08:26:15;17.30;99.90
15749;DHT22;7976;52.526;13.326;2023-07-31T08:28:42;17.40;99.90
15749;DHT22;7976;52.526;13.326;2023-07-31T08:31:11;17.30;99.90
15749;DHT22;7976;52.526;13.326;2023-07-31T08:33:37;17.40;99.90
15749;DHT22;7976;52.526;13.326;2023-07-31T08:36:05;17.30;99.90
15749;DHT22;7976;52.526;13.326;2023-07-31T08:38:32;17.40;99.90
15749;DHT22;7976;52.526;13.326;2023-07-31T08:40:59;17.40;99.90
15749;DHT22;7976;52.526;13.326;2023-07-31T08:43:27;17.40;99.90
15749;DHT22;7976;52.526;13.326;2023-07-31T08:45:54;17.50;99.90
15749;DHT22;7976;52.526;13.326;2023-07-31T08:48:23;17.50;99.90
15749;DHT22;7976;52.526;13.326;2023-07-31T08:50:59;17.60;99.90
15749;DHT22;7976;52.526;13.326;2023-07-31T08:53:25;17.60;99.90
15749;DHT22;7976;52.526;13.326;2023-07-31T08:55:53;17.60;99.90
15749;DHT22;7976;52.526;13.326;2023-07-31T08:58:20;17.60;99.90
15749;DHT22;7976;52.526;13.326;2023-07-31T09:00:50;17.70;99.90
15749;DHT22;7976;52.526;13.326;2023-07-31T09:03:18;17.60;99.90
15749;DHT22;7976;52.526;13.326;2023-07-31T09:05:47;17.70;99.90
15749;DHT22;7976;52.526;13.326;2023-07-31T09:08:17;17.80;99.90
15749;DHT22;7976;52.526;13.326;2023-07-31T09:10:46;17.80;99.90
15749;DHT22;7976;52.526;13.326;2023-07-31T09:13:13;17.80;99.90
15749;DHT22;7976;52.526;13.326;2023-07-31T09:15:43;17.90;99.90
15749;DHT22;7976;52.526;13.326;2023-07-31T09:18:11;17.80;99.90
15749;DHT22;7976;52.526;13.326;2023-07-31T09:20:39;17.80;99.90
15749;DHT22;7976;52.526;13.326;2023-07-31T09:23:09;17.80;99.90
15749;DHT22;7976;52.526;13.326;2023-07-31T09:25:38;17.70;99.90
15749;DHT22;7976;52.526;13.326;2023-07-31T09:28:07;17.70;99.90
15749;DHT22;7976;52.526;13.326;2023-07-31T09:30:45;17.60;99.90
15749;DHT22;7976;52.526;13.326;2023-07-31T09:33:14;17.50;99.90
15749;DHT22;7976;52.526;13.326;2023-07-31T09:35:41;17.50;99.90
15749;DHT22;7976;52.526;13.326;2023-07-31T09:38:11;17.40;99.90
15749;DHT22;7976;52.526;13.326;2023-07-31T09:40:41;17.40;99.90
15749;DHT22;7976;52.526;13.326;2023-07-31T09:43:11;17.30;99.90
15749;DHT22;7976;52.526;13.326;2023-07-31T09:45:40;17.30;99.90
15749;DHT22;7976;52.526;13.326;2023-07-31T09:48:09;17.30;99.90
15749;DHT22;7976;52.526;13.326;2023-07-31T09:50:38;17.40;99.90
15749;DHT22;7976;52.526;13.326;2023-07-31T09:53:09;17.40;99.90
15749;DHT22;7976;52.526;13.326;2023-07-31T09:55:37;17.50;99.90
15749;DHT22;7976;52.526;13.326;2023-07-31T09:58:09;17.50;99.90
15749;DHT22;7976;52.526;13.326;2023-07-31T10:00:37;17.60;99.90
15749;DHT22;7976;52.526;13.326;2023-07-31T10:03:06;17.60;99.90
15749;DHT22;7976;52.526;13.326;2023-07-31T10:05:35;17.60;99.90
15749;DHT22;7976;52.526;13.326;2023-07-31T10:08:05;17.70;99.90
15749;DHT22;7976;52.526;13.326;2023-07-31T10:10:37;17.80;99.90
15749;DHT22;7976;52.526;13.326;2023-07-31T10:13:08;17.90;99.90
15749;DHT22;7976;52.526;13.326;2023-07-31T10:15:36;18.00;99.90
15749;DHT22;7976;52.526;13.326;2023-07-31T10:18:05;18.00;99.90
15749;DHT22;7976;52.526;13.326;2023-07-31T10:20:33;18.10;99.90
15749;DHT22;7976;52.526;13.326;2023-07-31T10:23:02;18.10;99.90
15749;DHT22;7976;52.526;13.326;2023-07-31T10:25:30;18.00;99.90
15749;DHT22;7976;52.526;13.326;2023-07-31T10:28:00;18.00;99.90
15749;DHT22;7976;52.526;13.326;2023-07-31T10:30:29;18.00;99.90
15749;DHT22;7976;52.526;13.326;2023-07-31T10:32:59;18.10;99.90
15749;DHT22;7976;52.526;13.326;2023-07-31T10:35:27;18.10;99.90
15749;DHT22;7976;52.526;13.326;2023-07-31T10:37:54;18.20;99.90
15749;DHT22;7976;52.526;13.326;2023-07-31T10:40:24;18.30;99.90
15749;DHT22;7976;52.526;13.326;2023-07-31T10:42:54;18.30;99.90
15749;DHT22;7976;52.526;13.326;2023-07-31T10:45:32;18.40;99.90
15749;DHT22;7976;52.526;13.326;2023-07-31T10:48:03;18.50;99.90
15749;DHT22;7976;52.526;13.326;2023-07-31T10:50:32;18.70;99.90
15749;DHT22;7976;52.526;13.326;2023-07-31T10:53:03;18.90;99.90
15749;DHT22;7976;52.526;13.326;2023-07-31T10:55:33;19.00;99.90
15749;DHT22;7976;52.526;13.326;2023-07-31T10:58:07;19.10;99.90
15749;DHT22;7976;52.526;13.326;2023-07-31T11:00:38;19.20;99.90
15749;DHT22;7976;52.526;13.326;2023-07-31T11:03:08;19.20;99.90
15749;DHT22;7976;52.526;13.326;2023-07-31T11:05:48;19.30;99.90
15749;DHT22;7976;52.526;13.326;2023-07-31T11:08:20;19.50;99.90
15749;DHT22;7976;52.526;13.326;2023-07-31T11:10:51;19.60;99.90
15749;DHT22;7976;52.526;13.326;2023-07-31T11:13:34;19.60;99.90
15749;DHT22;7976;52.526;13.326;2023-07-31T11:16:08;19.60;99.90
15749;DHT22;7976;52.526;13.326;2023-07-31T11:18:37;19.50;99.90
15749;DHT22;7976;52.526;13.326;2023-07-31T11:21:05;19.50;99.90
15749;DHT22;7976;52.526;13.326;2023-07-31T11:23:32;19.50;99.90
15749;DHT22;7976;52.526;13.326;2023-07-31T11:26:00;19.50;99.90
15749;DHT22;7976;52.526;13.326;2023-07-31T11:28:31;19.50;99.90
15749;DHT22;7976;52.526;13.326;2023-07-31T11:31:00;19.50;99.90
15749;DHT22;7976;52.526;13.326;2023-07-31T11:33:29;19.50;99.90
15749;DHT22;7976;52.526;13.326;2023-07-31T11:35:57;19.40;99.90
15749;DHT22;7976;52.526;13.326;2023-07-31T11:38:28;19.40;99.90
15749;DHT22;7976;52.526;13.326;2023-07-31T11:40:58;19.30;99.90
15749;DHT22;7976;52.526;13.326;2023-07-31T11:43:28;19.30;99.90
15749;DHT22;7976;52.526;13.326;2023-07-31T11:46:00;19.30;99.90
15749;DHT22;7976;52.526;13.326;2023-07-31T11:48:31;19.30;99.90
15749;DHT22;7976;52.526;13.326;2023-07-31T11:51:02;19.30;99.90
15749;DHT22;7976;52.526;13.326;2023-07-31T11:53:35;19.30;99.90
15749;DHT22;7976;52.526;13.326;2023-07-31T11:56:06;19.30;99.90
15749;DHT22;7976;52.526;13.326;2023-07-31T11:58:37;19.40;99.90
15749;DHT22;7976;52.526;13.326;2023-07-31T12:01:05;19.40;99.90
15749;DHT22;7976;52.526;13.326;2023-07-31T12:03:35;19.40;99.90
15749;DHT22;7976;52.526;13.326;2023-07-31T12:06:02;19.40;99.90
15749;DHT22;7976;52.526;13.326;2023-07-31T12:08:29;19.50;99.90
15749;DHT22;7976;52.526;13.326;2023-07-31T12:11:02;19.40;99.90
15749;DHT22;7976;52.526;13.326;2023-07-31T12:13:32;19.40;99.90
15749;DHT22;7976;52.526;13.326;2023-07-31T12:16:02;19.40;99.90
15749;DHT22;7976;52.526;13.326;2023-07-31T12:18:35;19.50;99.90
15749;DHT22;7976;52.526;13.326;2023-07-31T12:21:05;19.60;99.90
15749;DHT22;7976;52.526;13.326;2023-07-31T12:23:35;19.70;99.90
15749;DHT22;7976;52.526;13.326;2023-07-31T12:26:04;19.90;99.90
15749;DHT22;7976;52.526;13.326;2023-07-31T12:28:35;20.00;99.90
15749;DHT22;7976;52.526;13.326;2023-07-31T12:31:05;20.10;99.90
15749;DHT22;7976;52.526;13.326;2023-07-31T12:33:33;20.10;99.90
15749;DHT22;7976;52.526;13.326;2023-07-31T12:36:07;20.10;99.90
15749;DHT22;7976;52.526;13.326;2023-07-31T12:38:36;20.20;99.90
15749;DHT22;7976;52.526;13.326;2023-07-31T12:41:04;20.20;99.90
15749;DHT22;7976;52.526;13.326;2023-07-31T12:43:35;20.30;99.90
15749;DHT22;7976;52.526;13.326;2023-07-31T12:46:03;20.30;99.90
15749;DHT22;7976;52.526;13.326;2023-07-31T12:48:31;20.40;99.90
15749;DHT22;7976;52.526;13.326;2023-07-31T12:51:00;20.40;99.90
15749;DHT22;7976;52.526;13.326;2023-07-31T12:53:27;20.40;99.90
15749;DHT22;7976;52.526;13.326;2023-07-31T12:55:54;20.40;99.90
15749;DHT22;7976;52.526;13.326;2023-07-31T12:58:21;20.40;99.90
15749;DHT22;7976;52.526;13.326;2023-07-31T13:00:48;20.30;99.90
15749;DHT22;7976;52.526;13.326;2023-07-31T13:03:15;20.30;99.90
15749;DHT22;7976;52.526;13.326;2023-07-31T13:05:41;20.20;99.90
15749;DHT22;7976;52.526;13.326;2023-07-31T13:08:10;20.20;99.90
15749;DHT22;7976;52.526;13.326;2023-07-31T13:10:37;20.10;99.90
15749;DHT22;7976;52.526;13.326;2023-07-31T13:13:04;19.90;99.90
15749;DHT22;7976;52.526;13.326;2023-07-31T13:15:31;19.90;99.90
15749;DHT22;7976;52.526;13.326;2023-07-31T13:17:58;19.90;99.90
15749;DHT22;7976;52.526;13.326;2023-07-31T13:20:25;20.00;99.90
15749;DHT22;7976;52.526;13.326;2023-07-31T13:22:51;20.00;99.90
15749;DHT22;7976;52.526;13.326;2023-07-31T13:25:20;20.00;99.90
15749;DHT22;7976;52.526;13.326;2023-07-31T13:27:46;20.10;99.90
15749;DHT22;7976;52.526;13.326;2023-07-31T13:30:13;20.20;99.90
15749;DHT22;7976;52.526;13.326;2023-07-31T13:32:40;20.30;99.90
15749;DHT22;7976;52.526;13.326;2023-07-31T13:35:08;20.30;99.90
15749;DHT22;7976;52.526;13.326;2023-07-31T13:37:36;20.30;99.90
15749;DHT22;7976;52.526;13.326;2023-07-31T13:40:04;20.40;99.90
15749;DHT22;7976;52.526;13.326;2023-07-31T13:42:33;20.40;99.90
15749;DHT22;7976;52.526;13.326;2023-07-31T13:45:00;20.50;99.90
15749;DHT22;7976;52.526;13.326;2023-07-31T13:47:27;20.60;99.90
15749;DHT22;7976;52.526;13.326;2023-07-31T13:49:54;20.60;99.90
15749;DHT22;7976;52.526;13.326;2023-07-31T13:52:20;20.70;99.90
15749;DHT22;7976;52.526;13.326;2023-07-31T13:54:47;20.70;99.90
15749;DHT22;7976;52.526;13.326;2023-07-31T13:57:14;20.80;99.90
15749;DHT22;7976;52.526;13.326;2023-07-31T13:59:43;20.80;99.90
15749;DHT22;7976;52.526;13.326;2023-07-31T14:02:10;20.70;99.90
15749;DHT22;7976;52.526;13.326;2023-07-31T14:04:36;20.70;99.90
15749;DHT22;7976;52.526;13.326;2023-07-31T14:07:04;20.70;99.90
15749;DHT22;7976;52.526;13.326;2023-07-31T14:09:31;20.70;99.90
15749;DHT22;7976;52.526;13.326;2023-07-31T14:11:58;20.70;99.90
15749;DHT22;7976;52.526;13.326;2023-07-31T14:14:25;20.70;99.90
15749;DHT22;7976;52.526;13.326;2023-07-31T14:16:53;20.60;99.90
15749;DHT22;7976;52.526;13.326;2023-07-31T14:19:20;20.70;99.90
15749;DHT22;7976;52.526;13.326;2023-07-31T14:21:47;20.70;99.90
15749;DHT22;7976;52.526;13.326;2023-07-31T14:24:14;20.70;99.90
15749;DHT22;7976;52.526;13.326;2023-07-31T14:26:41;20.70;99.90
15749;DHT22;7976;52.526;13.326;2023-07-31T14:29:08;20.70;99.90
15749;DHT22;7976;52.526;13.326;2023-07-31T14:31:35;20.70;99.90
15749;DHT22;7976;52.526;13.326;2023-07-31T14:34:04;20.70;99.90
15749;DHT22;7976;52.526;13.326;2023-07-31T14:36:31;20.70;99.90
15749;DHT22;7976;52.526;13.326;2023-07-31T14:38:58;20.70;99.90
15749;DHT22;7976;52.526;13.326;2023-07-31T14:41:25;20.70;99.90
15749;DHT22;7976;52.526;13.326;2023-07-31T14:43:52;20.70;99.90
15749;DHT22;7976;52.526;13.326;2023-07-31T14:46:18;20.70;99.90
15749;DHT22;7976;52.526;13.326;2023-07-31T14:48:45;20.70;99.90
15749;DHT22;7976;52.526;13.326;2023-07-31T14:51:14;20.70;99.90
15749;DHT22;7976;52.526;13.326;2023-07-31T14:53:43;20.60;99.90
15749;DHT22;7976;52.526;13.326;2023-07-31T14:56:10;20.60;99.90
15749;DHT22;7976;52.526;13.326;2023-07-31T14:58:37;20.60;99.90
15749;DHT22;7976;52.526;13.326;2023-07-31T15:01:04;20.50;99.90
15749;DHT22;7976;52.526;13.326;2023-07-31T15:03:31;20.50;99.90
15749;DHT22;7976;52.526;13.326;2023-07-31T15:05:58;20.50;99.90
15749;DHT22;7976;52.526;13.326;2023-07-31T15:08:26;20.40;99.90
15749;DHT22;7976;52.526;13.326;2023-07-31T15:10:54;20.40;99.90
15749;DHT22;7976;52.526;13.326;2023-07-31T15:13:23;20.40;99.90
15749;DHT22;7976;52.526;13.326;2023-07-31T15:15:50;20.40;99.90
15749;DHT22;7976;52.526;13.326;2023-07-31T15:18:17;20.30;99.90
15749;DHT22;7976;52.526;13.326;2023-07-31T15:20:44;20.30;99.90
15749;DHT22;7976;52.526;13.326;2023-07-31T15:23:11;20.30;99.90
15749;DHT22;7976;52.526;13.326;2023-07-31T15:25:39;20.40;99.90
15749;DHT22;7976;52.526;13.326;2023-07-31T15:28:06;20.50;99.90
15749;DHT22;7976;52.526;13.326;2023-07-31T15:30:35;20.50;99.90
15749;DHT22;7976;52.526;13.326;2023-07-31T15:33:03;20.40;99.90
15749;DHT22;7976;52.526;13.326;2023-07-31T15:35:30;20.40;99.90
15749;DHT22;7976;52.526;13.326;2023-07-31T15:37:57;20.40;99.90
15749;DHT22;7976;52.526;13.326;2023-07-31T15:40:24;20.30;99.90
15749;DHT22;7976;52.526;13.326;2023-07-31T15:42:52;20.30;99.90